createdAt,value
2019-02-04T00:01:17.420Z,0.30
2019-02-04T00:03:44.377Z,0.30
2019-02-04T00:06:11.832Z,0.20
2019-02-04T00:08:38.982Z,0.20
2019-02-04T00:11:05.828Z,0.20
2019-02-04T00:13:32.670Z,0.20
2019-02-04T00:15:59.820Z,0.20
2019-02-04T00:18:26.664Z,0.20
2019-02-04T00:20:54.066Z,0.20
2019-02-04T00:23:21.271Z,0.20
2019-02-04T00:25:48.114Z,0.30
2019-02-04T00:28:14.900Z,0.30
2019-02-04T00:30:41.801Z,0.20
2019-02-04T00:33:08.645Z,0.20
2019-02-04T00:35:35.487Z,0.20
2019-02-04T00:38:02.639Z,0.20
2019-02-04T00:40:30.639Z,0.20
2019-02-04T00:42:57.553Z,0.20
2019-02-04T00:45:24.750Z,0.20
2019-02-04T00:47:51.854Z,0.20
2019-02-04T00:50:22.780Z,0.10
2019-02-04T00:52:49.845Z,0.10
2019-02-04T00:55:16.684Z,0.10
2019-02-04T00:57:44.142Z,0.10
2019-02-04T01:00:18.052Z,0.10
2019-02-04T01:02:45.202Z,0.10
2019-02-04T01:05:15.425Z,0.00
2019-02-04T01:07:42.576Z,0.00
2019-02-04T01:10:13.105Z,0.00
2019-02-04T01:12:39.950Z,0.00
2019-02-04T01:15:07.144Z,0.00
2019-02-04T01:17:33.943Z,0.00
2019-02-04T01:20:01.093Z,0.00
2019-02-04T01:22:28.243Z,0.10
2019-02-04T01:24:55.396Z,0.10
2019-02-04T01:27:22.172Z,0.00
2019-02-04T01:29:49.082Z,0.10
2019-02-04T01:32:15.925Z,0.00
2019-02-04T01:34:42.766Z,0.10
2019-02-04T01:37:09.612Z,0.10
2019-02-04T01:39:36.453Z,0.10
2019-02-04T01:42:03.604Z,0.20
2019-02-04T01:44:30.792Z,0.20
2019-02-04T01:46:57.597Z,0.20
2019-02-04T01:49:24.440Z,0.20
2019-02-04T01:51:51.591Z,0.20
2019-02-04T01:54:18.435Z,0.20
2019-02-04T01:56:45.277Z,0.20
2019-02-04T01:59:12.428Z,0.20
2019-02-04T02:01:39.579Z,0.20
2019-02-04T02:04:06.422Z,0.20
2019-02-04T02:06:33.573Z,0.20
2019-02-04T02:09:00.417Z,0.30
2019-02-04T02:11:27.260Z,0.40
2019-02-04T02:13:54.410Z,0.40
2019-02-04T02:16:21.253Z,0.30
2019-02-04T02:18:48.096Z,0.30
2019-02-04T02:21:15.247Z,0.50
2019-02-04T02:23:42.397Z,0.50
2019-02-04T02:26:09.241Z,0.30
2019-02-04T02:28:36.394Z,0.20
2019-02-04T02:31:03.235Z,0.20
2019-02-04T02:33:30.081Z,0.10
2019-02-04T02:35:57.228Z,0.10
2019-02-04T02:38:24.378Z,0.10
2019-02-04T02:40:51.223Z,0.00
2019-02-04T02:43:18.372Z,-0.10
2019-02-04T02:45:45.217Z,-0.10
2019-02-04T02:48:12.059Z,0.00
2019-02-04T02:50:39.209Z,0.00
2019-02-04T02:53:06.059Z,0.00
2019-02-04T02:55:32.896Z,0.10
2019-02-04T02:58:00.047Z,0.10
2019-02-04T03:00:27.714Z,0.10
2019-02-04T03:02:54.655Z,0.10
2019-02-04T03:05:21.808Z,0.00
2019-02-04T03:07:48.955Z,0.00
2019-02-04T03:10:24.445Z,0.00
2019-02-04T03:12:51.247Z,0.00
2019-02-04T03:15:18.087Z,-0.10
2019-02-04T03:17:51.984Z,-0.10
2019-02-04T03:20:13.927Z,-0.20
2019-02-04T03:22:41.138Z,-0.20
2019-02-04T03:25:10.995Z,-0.20
2019-02-04T03:27:38.143Z,-0.20
2019-02-04T03:30:17.891Z,-0.30
2019-02-04T03:32:44.742Z,-0.30
2019-02-04T03:35:12.102Z,-0.30
2019-02-04T03:37:39.338Z,-0.40
2019-02-04T03:40:09.718Z,-0.40
2019-02-04T03:42:37.024Z,-0.40
2019-02-04T03:45:05.391Z,-0.40
2019-02-04T03:47:32.242Z,-0.30
2019-02-04T03:49:59.083Z,-0.30
2019-02-04T03:52:26.236Z,-0.30
2019-02-04T03:54:53.082Z,-0.30
2019-02-04T03:57:19.922Z,-0.30
2019-02-04T03:59:47.071Z,-0.30
2019-02-04T04:02:13.916Z,-0.30
2019-02-04T04:04:40.703Z,-0.30
2019-02-04T04:07:07.603Z,-0.30
2019-02-04T04:09:34.444Z,-0.30
2019-02-04T04:12:01.288Z,-0.30
2019-02-04T04:14:28.449Z,-0.30
2019-02-04T04:16:55.627Z,-0.30
2019-02-04T04:19:22.739Z,-0.30
2019-02-04T04:21:49.892Z,-0.30
2019-02-04T04:24:16.859Z,-0.20
2019-02-04T04:26:43.883Z,-0.20
2019-02-04T04:29:11.034Z,-0.20
2019-02-04T04:31:37.877Z,-0.10
2019-02-04T04:34:05.027Z,-0.10
2019-02-04T04:36:31.916Z,-0.10
2019-02-04T04:38:59.022Z,-0.10
2019-02-04T04:41:25.865Z,-0.10
2019-02-04T04:43:52.842Z,-0.10
2019-02-04T04:46:19.859Z,-0.10
2019-02-04T04:48:46.702Z,-0.20
2019-02-04T04:51:13.852Z,-0.20
2019-02-04T04:53:40.696Z,-0.20
2019-02-04T04:56:07.539Z,-0.20
2019-02-04T04:58:34.690Z,-0.20
2019-02-04T05:01:01.533Z,-0.20
2019-02-04T05:03:28.376Z,-0.20
2019-02-04T05:05:55.526Z,-0.30
2019-02-04T05:08:22.984Z,-0.30
2019-02-04T05:10:49.834Z,-0.30
2019-02-04T05:13:16.977Z,-0.40
2019-02-04T05:15:43.821Z,-0.50
2019-02-04T05:18:10.665Z,-0.50
2019-02-04T05:20:37.815Z,-0.50
2019-02-04T05:23:04.708Z,-0.50
2019-02-04T05:25:33.112Z,-0.50
2019-02-04T05:28:00.188Z,-0.40
2019-02-04T05:30:27.031Z,-0.40
2019-02-04T05:32:53.876Z,-0.40
2019-02-04T05:35:20.764Z,-0.50
2019-02-04T05:37:47.720Z,-0.40
2019-02-04T05:40:16.138Z,-0.40
2019-02-04T05:42:43.706Z,-0.40
2019-02-04T05:45:12.861Z,-0.30
2019-02-04T05:47:39.850Z,-0.30
2019-02-04T05:50:10.083Z,-0.30
2019-02-04T05:52:36.915Z,-0.30
2019-02-04T05:55:05.180Z,-0.30
2019-02-04T05:57:32.138Z,-0.30
2019-02-04T05:59:59.595Z,-0.40
2019-02-04T06:02:26.438Z,-0.40
2019-02-04T06:04:53.897Z,-0.40
2019-02-04T06:07:20.740Z,-0.40
2019-02-04T06:09:47.568Z,-0.30
2019-02-04T06:12:14.425Z,-0.50
2019-02-04T06:14:41.271Z,-0.50
2019-02-04T06:17:08.731Z,-0.60
2019-02-04T06:19:35.616Z,-0.60
2019-02-04T06:22:02.413Z,-0.70
2019-02-04T06:24:29.257Z,-0.80
2019-02-04T06:26:56.144Z,-1.00
2019-02-04T06:29:22.943Z,-1.00
2019-02-04T06:31:49.786Z,-1.20
2019-02-04T06:34:17.355Z,-1.20
2019-02-04T06:36:44.394Z,-1.10
2019-02-04T06:39:11.239Z,-1.30
2019-02-04T06:41:38.391Z,-1.40
2019-02-04T06:44:05.233Z,-1.40
2019-02-04T06:46:32.074Z,-1.60
2019-02-04T06:48:59.225Z,-1.60
2019-02-04T06:51:26.069Z,-1.50
2019-02-04T06:53:52.912Z,-1.50
2019-02-04T06:56:20.063Z,-1.60
2019-02-04T06:58:46.906Z,-1.70
2019-02-04T07:01:13.749Z,-1.70
2019-02-04T07:03:40.899Z,-1.80
2019-02-04T07:06:07.744Z,-1.90
2019-02-04T07:08:34.588Z,-2.00
2019-02-04T07:11:02.044Z,-2.00
2019-02-04T07:13:28.887Z,-2.10
2019-02-04T07:15:55.709Z,-2.10
2019-02-04T07:18:22.580Z,-2.10
2019-02-04T07:20:49.416Z,-2.10
2019-02-04T07:23:16.257Z,-2.00
2019-02-04T07:25:43.415Z,-2.10
2019-02-04T07:28:10.300Z,-2.20
2019-02-04T07:30:37.097Z,-2.20
2019-02-04T07:33:04.248Z,-2.20
2019-02-04T07:35:31.092Z,-2.20
2019-02-04T07:37:57.936Z,-2.30
2019-02-04T07:40:29.540Z,-2.20
2019-02-04T07:42:56.537Z,-2.20
2019-02-04T07:45:23.635Z,-2.30
2019-02-04T07:47:52.987Z,-2.30
2019-02-04T07:50:19.831Z,-2.40
2019-02-04T07:52:46.797Z,-2.40
2019-02-04T07:55:14.438Z,-2.50
2019-02-04T07:57:41.282Z,-2.50
2019-02-04T08:00:23.486Z,-2.50
2019-02-04T08:02:50.848Z,-2.50
2019-02-04T08:05:17.787Z,-2.50
2019-02-04T08:07:44.937Z,-2.50
2019-02-04T08:10:13.796Z,-2.40
2019-02-04T08:12:40.774Z,-2.40
2019-02-04T08:15:11.099Z,-2.50
2019-02-04T08:17:37.845Z,-2.50
2019-02-04T08:20:07.005Z,-2.40
2019-02-04T08:22:33.828Z,-2.40
2019-02-04T08:25:00.827Z,-2.20
2019-02-04T08:27:27.670Z,-2.30
2019-02-04T08:29:54.564Z,-2.20
2019-02-04T08:32:21.359Z,-2.00
2019-02-04T08:34:48.814Z,-2.00
2019-02-04T08:37:15.965Z,-1.90
2019-02-04T08:39:42.817Z,-1.80
2019-02-04T08:42:09.666Z,-1.60
2019-02-04T08:44:36.802Z,-1.50
2019-02-04T08:47:03.645Z,-1.40
2019-02-04T08:49:30.795Z,-1.30
2019-02-04T08:51:57.946Z,-1.30
2019-02-04T08:54:25.098Z,-1.00
2019-02-04T08:56:51.940Z,-1.00
2019-02-04T08:59:18.834Z,-0.90
2019-02-04T09:01:45.627Z,-0.80
2019-02-04T09:04:12.470Z,-0.60
2019-02-04T09:06:39.621Z,-0.40
2019-02-04T09:09:07.385Z,-0.40
2019-02-04T09:11:34.535Z,-0.40
2019-02-04T09:14:01.993Z,-0.30
2019-02-04T09:16:28.780Z,-0.40
2019-02-04T09:18:55.678Z,-0.30
2019-02-04T09:21:22.829Z,-0.20
2019-02-04T09:23:49.673Z,-0.10
2019-02-04T09:26:16.826Z,-0.20
2019-02-04T09:28:43.975Z,-0.10
2019-02-04T09:31:11.124Z,0.10
2019-02-04T09:33:37.968Z,0.20
2019-02-04T09:36:05.120Z,0.40
2019-02-04T09:38:31.962Z,0.60
2019-02-04T09:40:59.216Z,0.70
2019-02-04T09:43:26.262Z,0.70
2019-02-04T09:45:53.106Z,0.70
2019-02-04T09:48:20.563Z,0.80
2019-02-04T09:50:50.786Z,0.90
2019-02-04T09:53:17.629Z,0.90
2019-02-04T09:55:44.477Z,0.90
2019-02-04T09:58:11.625Z,1.00
2019-02-04T10:00:38.472Z,1.10
2019-02-04T10:03:06.497Z,1.30
2019-02-04T10:05:33.384Z,1.50
2019-02-04T10:08:00.840Z,1.40
2019-02-04T10:10:29.834Z,1.30
2019-02-04T10:12:56.984Z,1.40
2019-02-04T10:15:26.911Z,1.60
2019-02-04T10:17:54.050Z,1.70
2019-02-04T10:20:32.785Z,1.90
2019-02-04T10:22:49.583Z,2.00
2019-02-04T10:25:22.016Z,2.10
2019-02-04T10:27:50.028Z,2.00
2019-02-04T10:30:19.973Z,2.00
2019-02-04T10:32:47.611Z,2.10
2019-02-04T10:35:16.929Z,2.20
2019-02-04T10:37:44.721Z,2.30
2019-02-04T10:40:23.612Z,2.30
2019-02-04T10:42:50.438Z,2.30
2019-02-04T10:45:18.817Z,2.60
2019-02-04T10:47:46.041Z,2.50
2019-02-04T10:50:21.995Z,2.50
2019-02-04T10:52:48.881Z,2.60
2019-02-04T10:55:15.748Z,2.50
2019-02-04T10:57:42.879Z,2.60
2019-02-04T11:00:25.711Z,2.80
2019-02-04T11:02:52.530Z,3.00
2019-02-04T11:05:22.772Z,2.80
2019-02-04T11:07:49.904Z,2.80
2019-02-04T11:10:20.740Z,2.80
2019-02-04T11:12:47.886Z,2.60
2019-02-04T11:15:16.003Z,2.40
2019-02-04T11:17:42.902Z,2.70
2019-02-04T11:20:19.211Z,2.80
2019-02-04T11:22:46.669Z,3.00
2019-02-04T11:25:14.444Z,3.10
2019-02-04T11:27:41.273Z,3.20
2019-02-04T11:30:18.235Z,3.30
2019-02-04T11:32:45.376Z,3.20
2019-02-04T11:35:12.519Z,3.40
2019-02-04T11:37:39.434Z,3.20
2019-02-04T11:40:13.005Z,3.30
2019-02-04T11:42:39.809Z,3.40
2019-02-04T11:45:08.731Z,3.40
2019-02-04T11:47:35.666Z,3.40
2019-02-04T11:50:05.557Z,3.60
2019-02-04T11:52:35.024Z,3.70
2019-02-04T11:55:01.087Z,3.80
2019-02-04T11:57:27.930Z,3.80
2019-02-04T11:59:54.821Z,3.70
2019-02-04T12:02:21.924Z,4.00
2019-02-04T12:04:48.768Z,4.10
2019-02-04T12:07:15.918Z,4.40
2019-02-04T12:09:42.762Z,4.60
2019-02-04T12:12:10.219Z,4.70
2019-02-04T12:14:37.370Z,4.70
2019-02-04T12:17:04.213Z,4.40
2019-02-04T12:19:31.056Z,4.20
2019-02-04T12:21:58.259Z,4.20
2019-02-04T12:24:25.666Z,4.30
2019-02-04T12:26:52.552Z,4.20
2019-02-04T12:29:20.579Z,4.20
2019-02-04T12:31:47.423Z,4.30
2019-02-04T12:34:14.266Z,4.30
2019-02-04T12:36:41.418Z,4.50
2019-02-04T12:39:10.411Z,4.60
2019-02-04T12:41:37.258Z,4.50
2019-02-04T12:44:04.449Z,4.50
2019-02-04T12:46:31.252Z,4.60
2019-02-04T12:48:58.094Z,4.80
2019-02-04T12:51:33.399Z,5.00
2019-02-04T12:53:53.934Z,5.20
2019-02-04T12:56:20.771Z,5.20
2019-02-04T12:58:55.399Z,5.40
2019-02-04T13:01:16.301Z,5.30
2019-02-04T13:03:43.145Z,4.80
2019-02-04T13:06:10.846Z,4.90
2019-02-04T13:08:37.753Z,5.10
2019-02-04T13:11:04.903Z,5.30
2019-02-04T13:13:32.056Z,5.40
2019-02-04T13:15:58.897Z,5.00
2019-02-04T13:18:26.047Z,4.50
2019-02-04T13:20:53.198Z,4.50
2019-02-04T13:23:20.348Z,4.50
2019-02-04T13:25:47.193Z,4.80
2019-02-04T13:28:14.921Z,4.80
2019-02-04T13:30:41.799Z,5.10
2019-02-04T13:33:08.643Z,5.20
2019-02-04T13:35:36.102Z,5.30
2019-02-04T13:38:04.377Z,5.40
2019-02-04T13:40:31.488Z,5.10
2019-02-04T13:42:58.781Z,4.90
2019-02-04T13:45:27.160Z,5.30
2019-02-04T13:47:54.932Z,5.60
2019-02-04T13:50:22.997Z,5.80
2019-02-04T13:52:50.970Z,5.80
2019-02-04T13:55:25.719Z,6.10
2019-02-04T13:57:52.481Z,6.80
2019-02-04T14:02:58.516Z,7.20
2019-02-04T14:05:15.912Z,8.00
2019-02-04T14:07:42.882Z,8.30
2019-02-04T14:10:15.822Z,8.90
2019-02-04T14:12:45.452Z,8.50
2019-02-04T14:15:14.080Z,9.30
2019-02-04T14:17:41.008Z,9.50
2019-02-04T14:34:54.719Z,10.10
2019-02-04T14:37:22.216Z,11.30
2019-02-04T14:39:49.364Z,11.60
2019-02-04T14:44:45.235Z,11.90
2019-02-04T14:47:18.795Z,12.00
2019-02-04T14:49:58.235Z,11.80
2019-02-04T14:52:28.726Z,11.80
2019-02-04T14:55:08.201Z,11.70
2019-02-04T14:57:41.497Z,11.50
2019-02-04T15:00:24.928Z,11.70
2019-02-04T15:03:19.449Z,12.00
2019-02-04T15:05:56.560Z,12.70
2019-02-04T15:08:33.261Z,12.70
2019-02-04T15:11:08.521Z,11.90
2019-02-04T15:13:54.057Z,11.60
2019-02-04T15:16:36.615Z,11.00
2019-02-04T15:19:27.112Z,11.30
2019-02-04T15:22:09.929Z,11.20
2019-02-04T15:24:55.820Z,10.90
2019-02-04T15:27:43.552Z,11.40
2019-02-04T15:30:32.252Z,11.30
2019-02-04T15:33:22.410Z,11.20
2019-02-04T15:35:55.694Z,10.80
2019-02-04T15:38:29.297Z,9.80
2019-02-04T15:41:08.733Z,9.50
2019-02-04T15:44:00.769Z,9.40
2019-02-04T15:46:49.424Z,9.40
2019-02-04T15:49:35.005Z,8.60
2019-02-04T15:56:56.148Z,8.30
2019-02-04T15:59:23.300Z,7.30
2019-02-04T16:04:28.576Z,6.90
2019-02-04T16:06:55.504Z,5.30
2019-02-04T16:09:22.358Z,4.20
2019-02-04T16:11:49.498Z,3.50
2019-02-04T16:14:16.340Z,3.40
2019-02-04T16:16:43.184Z,3.20
2019-02-04T16:19:10.642Z,3.00
2019-02-04T16:21:37.486Z,2.50
2019-02-04T16:24:04.945Z,2.10
2019-02-04T16:26:31.952Z,1.90
2019-02-04T16:28:58.936Z,1.80
2019-02-04T16:31:25.779Z,1.80
2019-02-04T16:33:52.932Z,1.70
2019-02-04T16:36:20.388Z,1.70
2019-02-04T16:38:47.232Z,1.60
2019-02-04T16:41:14.386Z,1.60
2019-02-04T16:43:41.226Z,1.70
2019-02-04T16:46:08.069Z,1.50
2019-02-04T16:48:34.912Z,1.20
2019-02-04T16:51:11.388Z,1.20
2019-02-04T16:53:30.441Z,1.20
2019-02-04T16:55:57.591Z,1.20
2019-02-04T16:58:24.435Z,1.10
2019-02-04T17:00:51.281Z,1.10
2019-02-04T17:03:18.876Z,1.30
2019-02-04T17:05:45.737Z,1.10
2019-02-04T17:08:12.730Z,0.70
2019-02-04T17:10:39.983Z,0.30
2019-02-04T17:13:07.340Z,0.20
2019-02-04T17:15:34.186Z,0.30
2019-02-04T17:18:01.333Z,0.30
2019-02-04T17:20:30.493Z,0.30
2019-02-04T17:22:57.578Z,0.30
2019-02-04T17:25:24.627Z,0.20
2019-02-04T17:27:51.788Z,0.20
2019-02-04T17:30:22.618Z,0.20
2019-02-04T17:32:49.459Z,0.20
2019-02-04T17:35:16.919Z,0.20
2019-02-04T17:37:44.068Z,0.10
2019-02-04T17:40:17.975Z,0.10
2019-02-04T17:42:45.127Z,0.20
2019-02-04T17:45:14.677Z,0.10
2019-02-04T17:47:41.885Z,0.00
2019-02-04T17:50:12.066Z,-0.10
2019-02-04T17:52:38.870Z,0.00
2019-02-04T17:55:09.480Z,-0.10
2019-02-04T17:57:36.326Z,-0.10
2019-02-04T18:00:08.658Z,-0.20
2019-02-04T18:02:35.539Z,-0.10
2019-02-04T18:05:02.694Z,-0.50
2019-02-04T18:07:29.533Z,-0.40
2019-02-04T18:09:56.685Z,-0.50
2019-02-04T18:12:23.527Z,-0.70
2019-02-04T18:14:50.372Z,-0.70
2019-02-04T18:17:17.521Z,-0.80
2019-02-04T18:19:44.366Z,-0.80
2019-02-04T18:22:11.211Z,-0.80
2019-02-04T18:24:38.358Z,-0.70
2019-02-04T18:27:05.816Z,-0.70
2019-02-04T18:29:32.966Z,-0.60
2019-02-04T18:32:00.424Z,-0.80
2019-02-04T18:34:27.268Z,-0.80
2019-02-04T18:36:54.110Z,-0.80
2019-02-04T18:39:21.101Z,-0.80
2019-02-04T18:41:48.105Z,-0.80
2019-02-04T18:44:14.947Z,-0.80
2019-02-04T18:46:42.405Z,-0.90
2019-02-04T18:49:09.253Z,-0.90
2019-02-04T18:51:36.096Z,-1.00
2019-02-04T18:54:03.551Z,-1.00
2019-02-04T18:56:30.397Z,-1.00
2019-02-04T18:58:57.274Z,-1.00
2019-02-04T19:01:25.004Z,-0.90
2019-02-04T19:03:53.381Z,-1.00
2019-02-04T19:06:22.771Z,-1.00
2019-02-04T19:08:49.942Z,-1.10
2019-02-04T19:11:18.836Z,-1.10
2019-02-04T19:13:45.669Z,-1.10
2019-02-04T19:16:12.821Z,-1.10
2019-02-04T19:18:39.666Z,-1.20
2019-02-04T19:21:06.506Z,-1.20
2019-02-04T19:23:33.351Z,-1.20
2019-02-04T19:26:00.807Z,-1.30
2019-02-04T19:28:27.650Z,-1.30
2019-02-04T19:31:01.296Z,-1.30
2019-02-04T19:33:28.147Z,-1.40
2019-02-04T19:35:55.246Z,-1.40
2019-02-04T19:38:22.409Z,-1.40
2019-02-04T19:40:49.710Z,-1.40
2019-02-04T19:43:17.004Z,-1.40
2019-02-04T19:45:43.896Z,-1.40
2019-02-04T19:48:10.998Z,-1.40
2019-02-04T19:50:38.154Z,-1.50
2019-02-04T19:53:05.964Z,-1.50
2019-02-04T19:55:34.706Z,-1.50
2019-02-04T19:58:01.762Z,-1.60
2019-02-04T20:00:32.693Z,-1.60
2019-02-04T20:03:00.049Z,-1.50
2019-02-04T20:05:28.386Z,-1.70
2019-02-04T20:07:55.789Z,-1.70
2019-02-04T20:10:25.412Z,-1.70
2019-02-04T20:12:52.350Z,-1.70
2019-02-04T20:15:21.299Z,-1.70
2019-02-04T20:17:48.172Z,-1.80
2019-02-04T20:20:15.289Z,-1.90
2019-02-04T20:22:42.167Z,-1.90
2019-02-04T20:25:17.969Z,-2.00
2019-02-04T20:27:45.069Z,-1.90
2019-02-04T20:30:21.341Z,-1.90
2019-02-04T20:32:48.278Z,-1.90
2019-02-04T20:35:16.657Z,-2.00
2019-02-04T20:37:43.813Z,-2.00
2019-02-04T20:40:17.108Z,-2.00
2019-02-04T20:42:43.945Z,-2.00
2019-02-04T20:45:13.156Z,-2.00
2019-02-04T20:47:40.705Z,-2.00
2019-02-04T20:50:11.234Z,-2.00
2019-02-04T20:52:38.384Z,-2.10
2019-02-04T20:55:05.748Z,-2.20
2019-02-04T20:57:32.686Z,-2.20
2019-02-04T20:59:59.576Z,-2.20
2019-02-04T21:02:26.373Z,-2.30
2019-02-04T21:04:53.832Z,-2.30
2019-02-04T21:07:20.673Z,-2.40
2019-02-04T21:09:47.516Z,-2.30
2019-02-04T21:12:14.362Z,-2.30
2019-02-04T21:14:41.202Z,-2.30
2019-02-04T21:17:08.046Z,-2.10
2019-02-04T21:19:34.894Z,-2.10
2019-02-04T21:22:02.042Z,-2.10
2019-02-04T21:24:28.619Z,-2.10
2019-02-04T21:26:55.267Z,-2.10
2019-02-04T21:29:21.955Z,-2.10
2019-02-04T21:31:48.798Z,-2.10
2019-02-04T21:34:15.380Z,-2.10
2019-02-04T21:36:42.179Z,-2.10
2019-02-04T21:39:09.331Z,-2.20
2019-02-04T21:41:36.481Z,-2.10
2019-02-04T21:44:03.367Z,-2.20
2019-02-04T21:46:29.904Z,-2.40
2019-02-04T21:48:56.702Z,-2.30
2019-02-04T21:51:23.284Z,-2.40
2019-02-04T21:53:50.083Z,-2.30
2019-02-04T21:56:16.925Z,-2.30
2019-02-04T21:58:44.076Z,-2.30
2019-02-04T22:01:11.228Z,-2.20
2019-02-04T22:03:37.763Z,-2.20
2019-02-04T22:06:04.606Z,-2.20
2019-02-04T22:08:31.143Z,-2.20
2019-02-04T22:10:57.984Z,-2.30
2019-02-04T22:13:24.828Z,-2.20
2019-02-04T22:15:51.979Z,-2.20
2019-02-04T22:18:18.822Z,-2.20
2019-02-04T22:20:45.973Z,-2.20
2019-02-04T22:23:12.816Z,-2.20
2019-02-04T22:25:40.273Z,-2.20
2019-02-04T22:28:06.964Z,-2.20
2019-02-04T22:30:33.900Z,-2.30
2019-02-04T22:33:00.805Z,-2.30
2019-02-04T22:35:27.417Z,-2.30
2019-02-04T22:37:54.290Z,-2.30
2019-02-04T22:40:23.483Z,-2.30
2019-02-04T22:42:50.887Z,-2.30
2019-02-04T22:45:17.943Z,-2.40
2019-02-04T22:47:44.936Z,-2.40
2019-02-04T22:50:24.067Z,-2.40
2019-02-04T22:52:50.909Z,-2.40
2019-02-04T22:55:18.981Z,-2.40
2019-02-04T22:57:45.868Z,-2.40
2019-02-04T23:00:42.163Z,-2.40
2019-02-04T23:03:09.877Z,-2.50
2019-02-04T23:05:36.769Z,-2.50
2019-02-04T23:08:04.726Z,-2.60
2019-02-04T23:10:31.683Z,-2.60
2019-02-04T23:12:58.529Z,-2.50
2019-02-04T23:15:25.372Z,-2.50
2019-02-04T23:17:52.225Z,-2.50
2019-02-04T23:20:19.075Z,-2.60
2019-02-04T23:22:46.514Z,-2.60
2019-02-04T23:25:13.665Z,-2.60
2019-02-04T23:27:40.508Z,-2.60
2019-02-04T23:30:13.803Z,-2.60
2019-02-04T23:32:40.954Z,-2.60
2019-02-04T23:35:08.921Z,-2.60
2019-02-04T23:37:36.177Z,-2.50
2019-02-04T23:40:05.470Z,-2.60
2019-02-04T23:42:32.320Z,-2.60
2019-02-04T23:44:59.163Z,-2.60
2019-02-04T23:47:26.011Z,-2.60
2019-02-04T23:49:52.849Z,-2.60
2019-02-04T23:52:19.692Z,-2.70
2019-02-04T23:54:46.580Z,-2.60
2019-02-04T23:57:13.481Z,-2.70
2019-02-04T23:59:40.223Z,-2.70
